Time;durP1;ratioP1;P1;durP2;ratioP2;P2;SDS_P1;SDS_P2;PMS_P1;PMS_P2;Temp;Humidity;BMP_temperature;BMP_pressure;BME280_temperature;BME280_humidity;BME280_pressure;Samples;Min_cycle;Max_cycle;Signal;HPM_P1;HPM_P2
2024/01/31 00:01:38;;;;;;;25.90;15.20;;;7.60;52.00;;;;;;4953165;29;20179;-87
2024/01/31 00:04:06;;;;;;;23.97;14.33;;;7.50;51.90;;;;;;4939314;29;20177;-87
2024/01/31 00:06:32;;;;;;;24.27;14.53;;;7.60;52.60;;;;;;4938767;29;20185;-86
2024/01/31 00:09:00;;;;;;;20.40;14.10;;;7.60;52.10;;;;;;4939728;29;21138;-86
2024/01/31 00:11:28;;;;;;;18.47;13.50;;;7.50;52.00;;;;;;4936978;29;20314;-86
2024/01/31 00:13:57;;;;;;;20.60;13.97;;;7.60;52.10;;;;;;4938519;29;20562;-87
2024/01/31 00:16:23;;;;;;;21.07;14.70;;;7.70;52.10;;;;;;4937326;29;20225;-86
2024/01/31 00:18:50;;;;;;;22.70;14.93;;;7.50;51.90;;;;;;4939094;29;20648;-87
2024/01/31 00:21:16;;;;;;;23.30;14.90;;;7.60;52.00;;;;;;4938603;28;20188;-87
2024/01/31 00:23:42;;;;;;;22.07;14.47;;;7.50;52.00;;;;;;4937739;29;20209;-86
2024/01/31 00:26:07;;;;;;;19.83;13.27;;;7.50;52.10;;;;;;4938477;29;20191;-87
2024/01/31 00:28:33;;;;;;;22.10;14.17;;;7.50;52.00;;;;;;4936318;29;20237;-86
2024/01/31 00:30:59;;;;;;;21.17;14.43;;;7.50;52.00;;;;;;4938853;29;20177;-86
2024/01/31 00:33:24;;;;;;;20.80;13.37;;;7.50;52.10;;;;;;4954151;28;20189;-86
2024/01/31 00:35:50;;;;;;;23.10;14.97;;;7.60;52.20;;;;;;4938078;29;20181;-86
2024/01/31 00:38:15;;;;;;;22.53;13.70;;;7.60;52.20;;;;;;4937955;29;20564;-87
2024/01/31 00:40:41;;;;;;;19.13;13.43;;;7.50;52.00;;;;;;4952949;28;20276;-86
2024/01/31 00:43:09;;;;;;;19.50;13.37;;;7.70;52.20;;;;;;4934640;29;20300;-86
2024/01/31 00:45:35;;;;;;;19.93;13.57;;;7.50;52.00;;;;;;4952270;28;20659;-86
2024/01/31 00:48:00;;;;;;;19.50;13.93;;;7.50;52.10;;;;;;4937665;29;20200;-86
2024/01/31 00:50:26;;;;;;;22.67;14.27;;;7.50;52.10;;;;;;4938014;28;20703;-86
2024/01/31 00:52:51;;;;;;;21.77;14.00;;;7.70;52.20;;;;;;4953767;29;20453;-87
2024/01/31 00:55:17;;;;;;;22.30;14.07;;;7.50;52.10;;;;;;4937482;29;20181;-86
2024/01/31 00:57:44;;;;;;;21.33;14.17;;;7.50;52.00;;;;;;4938075;29;20268;-86
2024/01/31 01:00:11;;;;;;;22.33;13.77;;;7.50;52.00;;;;;;4953101;29;20181;-86
2024/01/31 01:02:40;;;;;;;22.10;13.57;;;7.50;52.00;;;;;;4938016;29;20738;-86
2024/01/31 01:05:07;;;;;;;20.43;14.07;;;7.50;52.00;;;;;;4937852;28;20187;-86
2024/01/31 01:07:33;;;;;;;20.67;13.63;;;7.40;52.00;;;;;;4935691;29;20244;-86
2024/01/31 01:09:58;;;;;;;16.17;12.27;;;7.40;52.00;;;;;;4937751;29;20264;-86
2024/01/31 01:12:24;;;;;;;23.90;14.30;;;7.40;52.00;;;;;;4951425;28;20188;-86
2024/01/31 01:14:49;;;;;;;20.87;12.80;;;7.30;52.00;;;;;;4951955;28;20699;-86
2024/01/31 01:17:15;;;;;;;17.87;12.97;;;7.30;52.00;;;;;;4937282;29;20264;-86
2024/01/31 01:19:41;;;;;;;24.47;13.20;;;7.30;52.10;;;;;;4935858;29;24516;-86
2024/01/31 01:22:06;;;;;;;20.40;13.50;;;7.20;52.10;;;;;;4954819;28;20326;-86
2024/01/31 01:24:32;;;;;;;20.77;13.63;;;7.20;52.10;;;;;;4937002;29;20239;-86
2024/01/31 01:26:57;;;;;;;18.37;13.50;;;7.20;52.10;;;;;;4951553;29;20669;-87
2024/01/31 01:29:23;;;;;;;20.13;13.37;;;7.20;52.20;;;;;;4937402;29;20195;-86
2024/01/31 01:31:48;;;;;;;22.93;13.53;;;7.20;52.20;;;;;;4951171;28;20196;-86
2024/01/31 01:34:14;;;;;;;21.63;14.50;;;7.20;52.20;;;;;;4951413;29;20311;-86
2024/01/31 01:36:40;;;;;;;21.10;13.70;;;7.20;52.30;;;;;;4937001;29;20220;-86
2024/01/31 01:39:05;;;;;;;18.03;12.50;;;7.20;52.30;;;;;;4937238;29;20760;-86
2024/01/31 01:41:31;;;;;;;18.43;12.70;;;7.10;52.20;;;;;;4951538;28;20186;-86
2024/01/31 01:43:56;;;;;;;20.43;13.90;;;7.10;52.30;;;;;;4936671;29;20223;-87
2024/01/31 01:46:23;;;;;;;22.70;13.57;;;7.10;52.20;;;;;;4936857;29;20181;-86
2024/01/31 01:48:50;;;;;;;19.60;13.13;;;7.10;52.40;;;;;;4936248;29;20191;-86
2024/01/31 01:51:17;;;;;;;20.87;13.60;;;7.20;52.50;;;;;;4935944;29;20185;-86
2024/01/31 01:53:47;;;;;;;18.37;12.70;;;7.10;52.40;;;;;;4935601;29;20223;-86
2024/01/31 01:56:17;;;;;;;20.30;13.00;;;7.30;52.50;;;;;;4952291;28;20192;-86
2024/01/31 01:58:43;;;;;;;19.53;13.47;;;7.30;52.60;;;;;;4935345;29;20193;-86
2024/01/31 02:01:10;;;;;;;18.93;13.30;;;7.10;52.40;;;;;;4937291;29;20263;-86
2024/01/31 02:03:36;;;;;;;19.47;13.10;;;7.20;52.50;;;;;;4936585;29;20247;-86
2024/01/31 02:06:03;;;;;;;18.60;13.00;;;7.10;52.50;;;;;;4936326;29;20706;-86
2024/01/31 02:08:29;;;;;;;18.93;12.77;;;7.10;52.50;;;;;;4936997;29;20193;-86
2024/01/31 02:10:56;;;;;;;18.47;13.63;;;7.20;52.60;;;;;;4935794;29;20544;-86
2024/01/31 02:13:22;;;;;;;18.37;13.53;;;7.10;52.60;;;;;;4936304;28;20212;-86
2024/01/31 02:15:57;;;;;;;18.20;12.13;;;7.10;52.60;;;;;;4951984;29;20193;-86
2024/01/31 02:18:26;;;;;;;21.40;12.90;;;7.10;52.60;;;;;;4914102;29;20209;-86
2024/01/31 02:20:52;;;;;;;17.23;12.23;;;7.10;52.70;;;;;;4930754;29;20182;-86
2024/01/31 02:23:18;;;;;;;20.27;12.50;;;7.10;52.60;;;;;;4917445;29;20217;-87
2024/01/31 02:25:45;;;;;;;19.70;13.07;;;7.00;52.60;;;;;;4915736;29;20605;-86
2024/01/31 02:28:10;;;;;;;18.23;12.57;;;7.00;52.60;;;;;;4917988;29;20188;-87
2024/01/31 02:30:36;;;;;;;21.87;14.30;;;7.00;52.70;;;;;;4916860;29;20185;-87
2024/01/31 02:33:02;;;;;;;17.57;12.43;;;7.00;52.70;;;;;;4933493;29;20283;-86
2024/01/31 02:35:29;;;;;;;17.40;12.50;;;7.00;52.80;;;;;;4914618;29;20202;-85
2024/01/31 02:37:57;;;;;;;18.57;12.67;;;7.00;52.70;;;;;;4914904;29;20276;-86
2024/01/31 02:40:23;;;;;;;17.80;13.07;;;7.00;52.70;;;;;;4917789;29;20189;-87
2024/01/31 02:42:48;;;;;;;16.97;12.63;;;7.00;52.70;;;;;;4910942;29;20218;-87
2024/01/31 02:45:14;;;;;;;18.10;13.30;;;7.00;52.90;;;;;;4928792;29;20194;-86
2024/01/31 02:47:40;;;;;;;19.67;12.70;;;7.10;52.90;;;;;;4916546;29;20197;-86
2024/01/31 02:50:06;;;;;;;15.83;11.93;;;7.10;52.90;;;;;;4916997;29;20196;-86
2024/01/31 02:52:32;;;;;;;20.30;13.43;;;7.10;53.00;;;;;;4915951;29;20182;-86
2024/01/31 02:54:58;;;;;;;20.43;12.87;;;7.10;52.90;;;;;;4915140;29;20190;-86
2024/01/31 02:57:24;;;;;;;16.87;13.20;;;7.20;53.00;;;;;;4928856;29;20185;-86
2024/01/31 02:59:50;;;;;;;20.97;13.30;;;7.30;53.10;;;;;;4927789;29;20182;-87
2024/01/31 03:02:17;;;;;;;21.53;13.87;;;7.30;53.10;;;;;;4927108;29;20705;-86
2024/01/31 03:04:43;;;;;;;18.40;12.60;;;7.40;53.20;;;;;;4930181;29;20643;-86
2024/01/31 03:07:10;;;;;;;20.33;13.07;;;7.30;53.00;;;;;;4931695;29;20177;-86
2024/01/31 03:09:36;;;;;;;18.47;13.40;;;7.40;53.00;;;;;;4930419;29;20220;-87
2024/01/31 03:12:04;;;;;;;19.93;14.63;;;7.40;53.10;;;;;;4929047;29;21294;-86
2024/01/31 03:14:33;;;;;;;23.70;14.40;;;7.40;53.00;;;;;;4947968;28;20189;-86
2024/01/31 03:16:59;;;;;;;21.10;14.73;;;7.50;53.00;;;;;;4940323;28;20235;-86
2024/01/31 03:19:28;;;;;;;20.20;15.03;;;7.50;52.90;;;;;;4969046;28;20259;-86
2024/01/31 03:21:54;;;;;;;21.80;13.70;;;7.50;52.90;;;;;;4962442;28;20186;-86
2024/01/31 03:24:20;;;;;;;20.17;14.80;;;7.60;53.00;;;;;;4944224;28;20181;-86
2024/01/31 03:26:46;;;;;;;19.10;13.73;;;7.70;53.00;;;;;;4942958;28;20196;-87
2024/01/31 03:29:12;;;;;;;21.37;14.33;;;7.50;52.80;;;;;;4934113;29;20185;-86
2024/01/31 03:31:38;;;;;;;22.10;15.00;;;7.60;52.90;;;;;;4934496;29;20177;-86
2024/01/31 03:34:06;;;;;;;22.43;15.40;;;7.60;52.90;;;;;;4938496;29;20188;-86
2024/01/31 03:36:33;;;;;;;20.20;14.63;;;7.60;52.90;;;;;;4939396;29;20196;-86
2024/01/31 03:38:59;;;;;;;19.07;14.30;;;7.60;52.80;;;;;;4934702;29;20189;-87
2024/01/31 03:41:28;;;;;;;20.87;14.70;;;7.70;52.90;;;;;;4938311;29;20217;-87
2024/01/31 03:43:55;;;;;;;21.90;15.07;;;7.70;52.90;;;;;;4937358;29;20229;-87
2024/01/31 03:46:21;;;;;;;19.93;14.73;;;7.70;52.90;;;;;;4939845;29;20236;-87
2024/01/31 03:48:47;;;;;;;23.97;15.70;;;7.80;52.90;;;;;;4938846;29;20219;-86
2024/01/31 03:51:24;;;;;;;23.60;15.37;;;7.80;52.80;;;;;;4939127;28;20193;-86
2024/01/31 03:53:50;;;;;;;20.70;15.20;;;7.80;52.80;;;;;;4937856;29;20192;-87
2024/01/31 03:56:16;;;;;;;20.50;14.50;;;7.80;52.80;;;;;;4937392;29;20190;-87
2024/01/31 03:58:43;;;;;;;19.63;14.00;;;8.00;52.90;;;;;;4939281;29;20177;-86
2024/01/31 04:01:09;;;;;;;19.77;15.07;;;7.90;52.90;;;;;;4924195;29;20177;-87
2024/01/31 04:03:38;;;;;;;22.30;14.83;;;7.90;52.80;;;;;;4936018;29;20216;-87
2024/01/31 04:06:03;;;;;;;19.20;14.63;;;8.00;52.90;;;;;;4954529;29;20185;-87
2024/01/31 04:08:29;;;;;;;21.60;15.27;;;8.00;52.90;;;;;;4953022;28;20189;-86
2024/01/31 04:10:55;;;;;;;25.80;15.63;;;8.00;52.70;;;;;;4936986;29;20586;-86
2024/01/31 04:13:21;;;;;;;21.80;15.47;;;8.10;52.80;;;;;;4939360;29;20189;-87
2024/01/31 04:15:47;;;;;;;21.00;15.23;;;8.00;52.80;;;;;;4938337;29;20209;-86
2024/01/31 04:18:12;;;;;;;21.47;14.97;;;8.00;52.80;;;;;;4935242;29;20221;-87
2024/01/31 04:20:38;;;;;;;21.93;16.07;;;8.00;52.80;;;;;;4938888;29;20522;-86
2024/01/31 04:23:05;;;;;;;25.63;17.57;;;8.10;52.90;;;;;;4938536;29;20249;-84
2024/01/31 04:25:31;;;;;;;24.87;17.50;;;8.20;53.00;;;;;;4939032;28;20182;-84
2024/01/31 04:27:56;;;;;;;23.70;15.57;;;8.20;52.90;;;;;;4933613;29;20250;-84
2024/01/31 04:30:22;;;;;;;24.83;16.67;;;8.10;52.80;;;;;;4952162;28;20414;-84
2024/01/31 04:32:48;;;;;;;21.53;15.47;;;8.10;52.80;;;;;;4935784;29;20193;-84
2024/01/31 04:35:13;;;;;;;19.60;15.10;;;8.10;52.80;;;;;;4936658;29;20178;-84
2024/01/31 04:37:39;;;;;;;23.37;15.87;;;8.20;52.90;;;;;;4939191;29;20682;-84
2024/01/31 04:40:05;;;;;;;22.10;15.97;;;8.10;52.80;;;;;;4937541;29;20193;-84
2024/01/31 04:42:31;;;;;;;25.10;15.73;;;8.20;52.80;;;;;;4955513;28;20267;-84
2024/01/31 04:44:57;;;;;;;23.80;15.23;;;8.20;52.90;;;;;;4937343;29;20185;-84
2024/01/31 04:47:25;;;;;;;21.83;16.47;;;8.20;52.90;;;;;;4938045;28;20195;-84
2024/01/31 04:49:51;;;;;;;22.87;15.33;;;8.20;52.80;;;;;;4936968;29;20640;-84
2024/01/31 04:52:17;;;;;;;23.53;15.37;;;8.30;52.90;;;;;;4938345;29;20181;-84
2024/01/31 04:54:43;;;;;;;22.00;16.13;;;8.30;53.00;;;;;;4937385;29;20232;-84
2024/01/31 04:57:08;;;;;;;24.67;16.13;;;8.20;52.80;;;;;;4937433;28;20185;-84
2024/01/31 04:59:38;;;;;;;19.63;15.30;;;8.20;52.80;;;;;;4937539;29;20185;-84
2024/01/31 05:02:04;;;;;;;23.87;15.67;;;8.20;52.90;;;;;;4935709;29;20194;-84
2024/01/31 05:04:30;;;;;;;24.47;16.03;;;8.20;53.00;;;;;;4934710;29;20178;-84
2024/01/31 05:06:56;;;;;;;26.03;16.77;;;8.30;52.90;;;;;;4933581;29;20204;-85
2024/01/31 05:09:21;;;;;;;24.53;16.77;;;8.30;53.00;;;;;;4935949;29;20589;-84
2024/01/31 05:11:50;;;;;;;23.80;16.57;;;8.30;52.90;;;;;;4936715;28;20215;-84
2024/01/31 05:14:16;;;;;;;21.67;15.37;;;8.30;53.00;;;;;;4936339;29;20272;-85
2024/01/31 05:16:42;;;;;;;26.77;15.93;;;8.30;53.00;;;;;;4938091;29;20244;-84
2024/01/31 05:19:11;;;;;;;25.57;17.27;;;8.30;53.00;;;;;;4932036;29;20215;-84
2024/01/31 05:21:44;;;;;;;26.50;17.00;;;8.40;53.10;;;;;;4936170;29;20193;-84
2024/01/31 05:24:09;;;;;;;23.90;16.77;;;8.40;53.00;;;;;;4952653;28;20217;-84
2024/01/31 05:26:35;;;;;;;23.07;16.63;;;8.40;53.00;;;;;;4936614;29;20236;-84
2024/01/31 05:29:00;;;;;;;28.53;18.40;;;8.40;53.10;;;;;;4937008;29;20177;-84
2024/01/31 05:31:26;;;;;;;26.43;17.03;;;8.50;53.20;;;;;;4934960;29;20182;-84
2024/01/31 05:33:52;;;;;;;26.30;18.00;;;8.50;53.20;;;;;;4941787;28;20192;-84
2024/01/31 05:36:17;;;;;;;26.27;18.17;;;8.50;53.30;;;;;;4956950;28;20212;-84
2024/01/31 05:38:43;;;;;;;23.17;17.37;;;8.50;53.30;;;;;;4952631;28;20200;-87
2024/01/31 05:41:10;;;;;;;24.33;17.80;;;8.50;53.20;;;;;;4946610;28;20623;-85
2024/01/31 05:43:35;;;;;;;25.20;17.30;;;8.50;53.30;;;;;;4954464;28;20205;-87
2024/01/31 05:46:01;;;;;;;28.83;17.90;;;8.50;53.30;;;;;;4965624;28;20212;-87
2024/01/31 05:48:26;;;;;;;31.17;18.63;;;8.50;53.40;;;;;;4952670;28;20239;-85
2024/01/31 05:50:52;;;;;;;27.90;18.10;;;8.50;53.50;;;;;;4952805;28;20192;-86
2024/01/31 05:53:18;;;;;;;28.30;19.20;;;8.50;53.60;;;;;;4946599;28;20189;-85
2024/01/31 05:55:44;;;;;;;27.20;18.47;;;8.60;53.80;;;;;;4951595;28;20177;-87
2024/01/31 05:58:09;;;;;;;28.87;19.43;;;8.60;54.30;;;;;;4961689;28;20192;-87
2024/01/31 06:00:35;;;;;;;30.00;18.93;;;8.60;53.80;;;;;;4941393;28;20189;-84
2024/01/31 06:03:00;;;;;;;31.33;19.93;;;8.60;53.80;;;;;;4954626;28;20314;-86
2024/01/31 06:05:26;;;;;;;29.67;19.10;;;8.70;54.00;;;;;;4960792;28;20196;-87
2024/01/31 06:07:52;;;;;;;27.30;18.67;;;8.60;53.90;;;;;;4947464;28;20260;-85
2024/01/31 06:10:18;;;;;;;30.67;19.17;;;8.70;54.00;;;;;;4943144;28;20279;-84
2024/01/31 06:12:44;;;;;;;30.87;18.03;;;8.70;54.00;;;;;;4944987;28;20192;-86
2024/01/31 06:15:09;;;;;;;34.87;20.93;;;8.80;54.00;;;;;;4935096;29;20188;-85
2024/01/31 06:17:35;;;;;;;31.13;21.20;;;8.70;54.10;;;;;;4933213;29;20232;-85
2024/01/31 06:20:01;;;;;;;33.93;20.53;;;8.70;54.40;;;;;;4936496;29;20188;-85
2024/01/31 06:22:26;;;;;;;34.37;21.17;;;8.80;54.20;;;;;;4950297;28;20209;-85
2024/01/31 06:24:52;;;;;;;34.50;21.00;;;8.80;54.20;;;;;;4951358;28;20886;-86
2024/01/31 06:27:17;;;;;;;38.30;22.10;;;8.80;54.30;;;;;;4935553;29;20278;-87
2024/01/31 06:29:43;;;;;;;35.07;21.30;;;9.00;54.50;;;;;;4934315;29;20184;-89
2024/01/31 06:32:09;;;;;;;43.03;21.07;;;8.90;54.40;;;;;;4934441;29;20173;-87
2024/01/31 06:34:35;;;;;;;40.13;22.30;;;8.90;54.40;;;;;;4952030;28;20220;-86
2024/01/31 06:37:03;;;;;;;38.63;21.70;;;8.90;54.40;;;;;;4931949;28;20189;-84
2024/01/31 06:39:29;;;;;;;35.80;21.13;;;8.90;54.50;;;;;;4931947;29;20203;-89
2024/01/31 06:41:54;;;;;;;33.30;21.97;;;8.90;54.60;;;;;;4934972;28;20193;-87
2024/01/31 06:44:20;;;;;;;37.87;21.83;;;9.00;54.80;;;;;;4936790;29;20185;-87
2024/01/31 06:46:48;;;;;;;40.27;23.27;;;8.90;54.70;;;;;;4953524;29;20636;-86
2024/01/31 06:49:14;;;;;;;30.87;21.33;;;8.90;54.80;;;;;;4965490;28;20708;-86
2024/01/31 06:51:40;;;;;;;31.10;21.77;;;8.90;54.80;;;;;;4933964;29;20185;-86
2024/01/31 06:54:07;;;;;;;32.27;21.67;;;8.90;54.80;;;;;;4948949;28;20263;-88
2024/01/31 06:56:32;;;;;;;36.67;20.53;;;8.90;54.80;;;;;;4933423;28;20189;-86
2024/01/31 06:58:58;;;;;;;30.03;20.80;;;8.90;54.80;;;;;;4948342;28;20184;-87
2024/01/31 07:01:24;;;;;;;33.43;21.33;;;8.90;54.80;;;;;;4933562;29;20442;-86
2024/01/31 07:03:50;;;;;;;32.37;21.40;;;8.90;55.40;;;;;;4950346;28;20603;-89
2024/01/31 07:06:16;;;;;;;31.43;20.93;;;9.00;54.90;;;;;;4949309;28;20698;-88
2024/01/31 07:08:41;;;;;;;34.07;21.43;;;9.00;54.90;;;;;;4953561;28;20247;-86
2024/01/31 07:11:10;;;;;;;34.43;21.27;;;9.10;55.00;;;;;;4953006;28;20719;-87
2024/01/31 07:13:36;;;;;;;28.17;20.30;;;9.00;54.90;;;;;;4938171;29;20216;-87
2024/01/31 07:16:04;;;;;;;28.93;20.13;;;9.00;54.90;;;;;;4935161;28;20204;-88
2024/01/31 07:18:32;;;;;;;29.40;19.47;;;9.00;54.80;;;;;;4953546;28;20211;-87
2024/01/31 07:20:58;;;;;;;28.53;20.03;;;9.00;54.90;;;;;;4934431;28;20196;-85
2024/01/31 07:23:24;;;;;;;30.63;20.40;;;9.10;55.00;;;;;;4934940;29;20228;-88
2024/01/31 07:25:49;;;;;;;30.03;19.70;;;9.10;54.90;;;;;;4938141;29;20639;-87
2024/01/31 07:28:15;;;;;;;25.33;19.83;;;9.10;54.80;;;;;;4953272;28;20251;-86
2024/01/31 07:30:41;;;;;;;30.40;20.20;;;9.10;54.80;;;;;;4936826;29;20694;-86
2024/01/31 07:33:07;;;;;;;29.93;20.27;;;9.10;54.80;;;;;;4934472;29;20201;-87
2024/01/31 07:35:32;;;;;;;29.03;20.77;;;9.20;54.90;;;;;;4936489;29;20264;-88
2024/01/31 07:37:58;;;;;;;29.20;20.37;;;9.20;54.90;;;;;;4936750;29;20706;-89
2024/01/31 07:40:23;;;;;;;29.87;20.20;;;9.10;54.80;;;;;;4953238;28;20185;-89
2024/01/31 07:42:50;;;;;;;31.43;20.37;;;9.10;54.80;;;;;;4952749;28;20217;-86
2024/01/31 07:45:15;;;;;;;30.23;21.07;;;9.30;55.00;;;;;;4935052;28;20216;-86
2024/01/31 07:47:41;;;;;;;32.43;20.30;;;9.20;54.80;;;;;;4951625;28;20675;-87
2024/01/31 07:50:07;;;;;;;28.23;20.13;;;9.20;54.80;;;;;;4936449;29;20169;-88
2024/01/31 07:52:33;;;;;;;29.77;20.63;;;9.20;54.80;;;;;;4936118;28;20431;-89
2024/01/31 07:54:58;;;;;;;27.77;20.73;;;9.20;54.80;;;;;;4933939;29;20714;-86
2024/01/31 07:57:24;;;;;;;26.20;19.77;;;9.20;54.90;;;;;;4936744;29;20181;-84
2024/01/31 07:59:50;;;;;;;30.13;20.57;;;9.20;54.90;;;;;;4937138;28;20555;-89
2024/01/31 08:02:15;;;;;;;34.63;21.97;;;9.20;54.90;;;;;;4935812;29;20288;-88
2024/01/31 08:04:42;;;;;;;31.63;21.73;;;9.20;54.90;;;;;;4955539;28;20603;-87
2024/01/31 08:07:10;;;;;;;27.40;20.30;;;9.30;55.00;;;;;;4931659;28;20184;-88
2024/01/31 08:09:39;;;;;;;32.17;21.17;;;9.30;55.10;;;;;;4953490;29;20587;-89
2024/01/31 08:12:06;;;;;;;29.43;21.53;;;9.30;55.00;;;;;;4936555;28;20189;-87
2024/01/31 08:14:31;;;;;;;26.60;19.83;;;9.30;55.10;;;;;;4952145;28;20635;-85
2024/01/31 08:16:57;;;;;;;30.33;20.93;;;9.30;55.10;;;;;;4937103;29;20341;-87
2024/01/31 08:19:23;;;;;;;27.40;21.17;;;9.30;55.00;;;;;;4951493;28;20185;-87
2024/01/31 08:21:48;;;;;;;27.53;20.03;;;9.40;55.10;;;;;;4933219;29;20188;-88
2024/01/31 08:24:14;;;;;;;28.80;20.80;;;9.30;55.10;;;;;;4932900;29;20216;-86
2024/01/31 08:26:39;;;;;;;27.00;21.07;;;9.40;55.20;;;;;;4934955;28;20193;-86
2024/01/31 08:29:06;;;;;;;32.93;21.03;;;9.40;55.20;;;;;;4936287;29;20189;-88
2024/01/31 08:31:31;;;;;;;31.13;21.17;;;9.40;55.20;;;;;;4952677;28;20185;-86
2024/01/31 08:33:57;;;;;;;29.87;20.43;;;9.40;55.30;;;;;;4935455;28;20540;-87
2024/01/31 08:36:22;;;;;;;27.40;20.10;;;9.50;55.20;;;;;;4934611;29;20280;-88
2024/01/31 08:38:48;;;;;;;31.97;22.40;;;9.50;55.10;;;;;;4935952;29;20232;-87
2024/01/31 08:41:14;;;;;;;28.30;20.60;;;9.70;55.20;;;;;;4935612;29;20181;-87
2024/01/31 08:43:39;;;;;;;31.57;21.77;;;9.50;55.10;;;;;;4936461;29;20204;-86
2024/01/31 08:46:05;;;;;;;31.27;20.77;;;9.50;55.10;;;;;;4933555;28;20623;-88
2024/01/31 08:48:31;;;;;;;29.23;19.77;;;9.50;55.20;;;;;;4934373;29;20655;-87
2024/01/31 08:50:58;;;;;;;27.93;20.37;;;9.50;55.20;;;;;;4950119;28;20190;-87
2024/01/31 08:53:23;;;;;;;29.10;20.40;;;9.60;55.30;;;;;;4934025;29;20276;-87
2024/01/31 08:55:49;;;;;;;26.63;19.40;;;9.50;55.30;;;;;;4936415;29;20260;-88
2024/01/31 08:58:15;;;;;;;26.60;19.03;;;9.70;55.40;;;;;;4950546;29;20556;-87
2024/01/31 09:00:40;;;;;;;31.23;21.30;;;9.60;55.20;;;;;;4933160;29;20271;-87
2024/01/31 09:03:06;;;;;;;26.67;20.00;;;9.60;55.20;;;;;;4932553;29;20209;-87
2024/01/31 09:05:31;;;;;;;30.33;21.10;;;9.80;55.30;;;;;;4933832;29;20197;-87
2024/01/31 09:07:59;;;;;;;29.73;20.50;;;9.70;55.20;;;;;;4936252;29;20188;-84
2024/01/31 09:10:26;;;;;;;26.73;20.10;;;9.80;55.30;;;;;;4932273;28;20216;-87
2024/01/31 09:12:53;;;;;;;29.83;20.60;;;9.80;55.40;;;;;;4940754;29;20185;-87
2024/01/31 09:15:19;;;;;;;29.70;19.07;;;9.70;55.30;;;;;;4932363;29;20240;-85
2024/01/31 09:17:46;;;;;;;27.57;20.27;;;9.80;55.40;;;;;;4934804;29;20639;-85
2024/01/31 09:20:12;;;;;;;27.33;18.83;;;9.80;55.40;;;;;;4935422;29;20183;-86
2024/01/31 09:22:38;;;;;;;31.43;20.87;;;9.80;55.50;;;;;;4933755;29;20219;-87
2024/01/31 09:25:06;;;;;;;30.70;20.80;;;9.80;55.40;;;;;;4934559;28;20192;-86
2024/01/31 09:27:31;;;;;;;28.10;19.63;;;9.80;55.50;;;;;;4957615;28;20657;-87
2024/01/31 09:29:57;;;;;;;30.23;21.40;;;9.90;55.60;;;;;;4949689;28;20233;-86
2024/01/31 09:32:23;;;;;;;30.93;20.90;;;10.00;54.70;;;;;;4932958;29;20188;-87
2024/01/31 09:34:48;;;;;;;31.33;20.83;;;9.90;55.50;;;;;;4935104;29;20268;-86
2024/01/31 09:37:14;;;;;;;25.43;19.70;;;9.90;55.40;;;;;;4933816;29;20201;-86
2024/01/31 09:39:39;;;;;;;26.80;18.77;;;9.90;55.40;;;;;;4931924;29;20188;-86
2024/01/31 09:42:06;;;;;;;27.90;19.83;;;10.00;54.70;;;;;;4931640;29;20190;-87
2024/01/31 09:44:32;;;;;;;27.17;19.63;;;10.00;54.60;;;;;;4933439;29;20189;-85
2024/01/31 09:46:59;;;;;;;28.23;20.53;;;10.00;54.60;;;;;;4934739;29;20241;-85
2024/01/31 09:49:25;;;;;;;27.43;19.70;;;10.20;54.60;;;;;;4948913;28;20192;-86
2024/01/31 09:51:59;;;;;;;29.57;20.33;;;10.10;54.50;;;;;;4948658;28;20181;-87
2024/01/31 09:54:26;;;;;;;28.60;21.10;;;10.10;54.50;;;;;;4923314;29;20268;-85
2024/01/31 09:56:52;;;;;;;31.20;20.27;;;10.10;54.60;;;;;;4934211;29;20200;-86
2024/01/31 09:59:18;;;;;;;27.00;19.23;;;10.10;54.60;;;;;;4934036;28;20177;-87
2024/01/31 10:01:44;;;;;;;29.97;19.37;;;10.10;54.40;;;;;;4932956;29;20185;-88
2024/01/31 10:04:10;;;;;;;29.97;19.90;;;10.20;54.50;;;;;;4931485;29;20208;-85
2024/01/31 10:06:36;;;;;;;28.77;20.00;;;10.10;54.60;;;;;;4932505;29;20610;-87
2024/01/31 10:09:03;;;;;;;27.77;19.03;;;10.10;54.70;;;;;;4932848;28;20181;-85
2024/01/31 10:11:31;;;;;;;28.00;19.90;;;10.10;54.60;;;;;;4933292;29;20192;-86
2024/01/31 10:13:57;;;;;;;24.27;18.30;;;10.10;54.60;;;;;;4934726;29;20181;-87
2024/01/31 10:16:23;;;;;;;26.87;19.67;;;10.20;54.70;;;;;;4928738;29;20706;-86
2024/01/31 10:18:50;;;;;;;27.27;19.20;;;10.20;54.70;;;;;;4931863;29;20271;-85
2024/01/31 10:21:19;;;;;;;29.20;20.73;;;10.20;54.80;;;;;;4930880;29;20292;-86
2024/01/31 10:23:58;;;;;;;29.87;20.50;;;10.20;54.60;;;;;;4949625;28;20204;-86
2024/01/31 10:26:25;;;;;;;26.07;19.77;;;10.20;54.60;;;;;;4950364;28;20560;-85
2024/01/31 10:28:51;;;;;;;29.07;20.33;;;10.20;54.60;;;;;;4934487;29;20274;-86
2024/01/31 10:31:17;;;;;;;28.83;20.00;;;10.30;54.80;;;;;;4932378;28;20779;-86
2024/01/31 10:33:44;;;;;;;26.90;19.60;;;10.30;54.70;;;;;;4932460;28;20205;-85
2024/01/31 10:36:10;;;;;;;30.43;19.90;;;10.40;54.80;;;;;;4933850;29;20279;-87
2024/01/31 10:38:37;;;;;;;27.27;19.33;;;10.40;54.80;;;;;;4950397;28;20656;-86
2024/01/31 10:41:06;;;;;;;29.57;20.00;;;10.50;55.20;;;;;;4950603;28;20184;-86
2024/01/31 10:43:34;;;;;;;29.83;19.00;;;10.40;54.70;;;;;;4933328;29;20213;-86
2024/01/31 10:46:00;;;;;;;27.37;20.93;;;10.50;54.70;;;;;;4933764;29;20682;-88
2024/01/31 10:48:26;;;;;;;31.83;20.93;;;10.40;54.60;;;;;;4932658;29;20226;-86
2024/01/31 10:50:55;;;;;;;29.10;21.00;;;10.50;54.70;;;;;;4931993;29;20185;-88
2024/01/31 10:53:23;;;;;;;26.63;19.97;;;10.50;54.70;;;;;;4947596;28;20177;-86
2024/01/31 10:55:50;;;;;;;25.63;19.50;;;10.50;54.70;;;;;;4936844;28;20184;-87
2024/01/31 10:58:16;;;;;;;27.00;19.90;;;10.50;54.70;;;;;;4943914;28;20196;-87
2024/01/31 11:00:46;;;;;;;26.03;19.77;;;10.50;54.70;;;;;;4931093;29;20598;-86
2024/01/31 11:03:14;;;;;;;27.63;19.70;;;10.50;54.60;;;;;;4932482;28;20214;-88
2024/01/31 11:05:41;;;;;;;29.47;19.23;;;10.50;54.70;;;;;;4950120;29;20181;-86
2024/01/31 11:08:20;;;;;;;24.83;18.53;;;10.60;54.80;;;;;;4949581;28;20184;-86
2024/01/31 11:10:46;;;;;;;26.10;20.00;;;10.60;54.90;;;;;;4932312;29;20188;-86
2024/01/31 11:13:13;;;;;;;28.57;19.67;;;10.70;54.70;;;;;;4930069;29;20277;-87
2024/01/31 11:15:39;;;;;;;25.83;19.83;;;10.70;54.70;;;;;;4932602;29;20189;-88
2024/01/31 11:18:09;;;;;;;27.37;19.17;;;10.70;54.80;;;;;;4931992;28;20758;-86
2024/01/31 11:20:37;;;;;;;29.57;20.13;;;10.70;54.80;;;;;;4951114;28;20233;-86
2024/01/31 11:23:06;;;;;;;30.13;20.37;;;10.80;54.90;;;;;;4936076;28;20490;-86
2024/01/31 11:25:35;;;;;;;24.47;19.17;;;10.70;54.80;;;;;;4935785;28;20736;-86
2024/01/31 11:28:03;;;;;;;25.17;19.97;;;10.80;55.00;;;;;;4942568;29;20197;-86
2024/01/31 11:30:30;;;;;;;23.57;18.23;;;10.80;54.90;;;;;;4923061;28;20643;-87
2024/01/31 11:32:55;;;;;;;27.10;19.07;;;10.90;55.00;;;;;;4945617;28;20203;-86
2024/01/31 11:35:24;;;;;;;28.17;18.83;;;10.80;55.00;;;;;;4943345;28;20180;-85
2024/01/31 11:37:51;;;;;;;23.93;17.03;;;10.80;55.10;;;;;;4948118;28;20272;-86
2024/01/31 11:40:16;;;;;;;21.37;16.70;;;10.80;55.10;;;;;;4934019;28;20199;-87
2024/01/31 11:42:42;;;;;;;23.90;16.83;;;10.80;55.30;;;;;;4934404;28;20358;-87
2024/01/31 11:45:08;;;;;;;21.53;16.47;;;10.80;55.50;;;;;;4928855;28;20201;-86
2024/01/31 11:47:34;;;;;;;19.53;15.60;;;10.80;55.60;;;;;;4946041;28;20173;-87
2024/01/31 11:50:04;;;;;;;21.43;15.73;;;10.90;55.70;;;;;;4941816;28;20526;-86
2024/01/31 11:52:30;;;;;;;21.60;15.40;;;10.80;55.60;;;;;;4954269;28;20220;-87
2024/01/31 11:54:56;;;;;;;19.23;15.00;;;10.80;55.70;;;;;;4944986;28;20240;-86
2024/01/31 11:57:21;;;;;;;25.37;16.60;;;10.80;55.70;;;;;;4935655;28;20185;-86
2024/01/31 11:59:47;;;;;;;19.77;15.63;;;10.80;55.90;;;;;;4942334;28;20655;-86
2024/01/31 12:02:13;;;;;;;23.60;15.43;;;10.70;55.80;;;;;;4943943;28;20217;-85
2024/01/31 12:04:39;;;;;;;22.03;16.93;;;10.70;55.90;;;;;;4954404;28;20639;-87
2024/01/31 12:07:07;;;;;;;23.80;17.13;;;10.80;55.90;;;;;;4935367;29;20189;-86
2024/01/31 12:09:34;;;;;;;18.93;14.90;;;10.80;55.80;;;;;;4939603;28;20200;-88
2024/01/31 12:12:00;;;;;;;20.47;14.63;;;10.70;55.80;;;;;;4947512;28;20603;-86
2024/01/31 12:14:26;;;;;;;22.93;15.40;;;10.70;55.70;;;;;;4938103;28;20272;-87
2024/01/31 12:16:51;;;;;;;17.30;13.90;;;10.80;55.90;;;;;;4937611;29;20224;-88
2024/01/31 12:19:20;;;;;;;19.93;15.57;;;10.80;55.80;;;;;;4939512;28;20184;-86
2024/01/31 12:21:46;;;;;;;22.73;15.73;;;10.80;55.80;;;;;;4942986;28;20180;-87
2024/01/31 12:24:11;;;;;;;20.63;14.20;;;10.80;55.90;;;;;;4938552;29;20220;-86
2024/01/31 12:26:37;;;;;;;19.80;14.63;;;10.80;55.90;;;;;;4942841;28;20180;-88
2024/01/31 12:29:03;;;;;;;18.13;13.90;;;10.80;55.90;;;;;;4949318;28;20199;-86
2024/01/31 12:31:29;;;;;;;16.37;12.47;;;11.00;56.10;;;;;;4955541;28;20177;-88